Аэропорт
Ош (UCFO)

 UCFO / OSS
ЗЦ Центральная Азия
Ош (UCFO)
Ош (UCFO)
 40.60900, 72.79330  / 2927 ft

 UCFO 291800Z 19006MPS 9999 FEW050CB BKN100 23/06 Q1011 R12/0///95 TEMPO VRB09G14MPS
 TAF AMD UCFO 291456Z 2914/3012 15003G08MPS 9999 SCT050CB BKN100 TEMPO 2915/2921 27009G14MPS 2000 -TSRA BR SCT030CB BECMG 3002/3004 32005MPS
показать схемы



2020 © VATRUS division (Privacy Policy)